3MD3 weather

Hoopers Heliport
Ocean City, Maryland, United States

Public forecast

Using degrees Fahrenheit for public forecast. Weather courtesy of forecast.io.

METAR (pilot weather report)

Closest report is Ocean City Municipal Airport, 0.2 nm (0.3 km) WSW. Retrieved 2019/04/18 09:53 UTC (36 minutes ago):

KOXB 180953Z AUTO 00000KT 7SM CLR 11/11 A3004 RMK AO2 SLP172 T01110106

TAF (pilot weather forecast)

Closest forecast is Salisbury Ocean City Wicomico Regional Airport, 18.4 nm (34.2 km) W. Retrieved 2019/04/18 06:27 UTC (4 hours ago):

TAF KSBY 180524Z 1806/1906 11009KT P6SM SCT250 FM180700 11007KT P6SM OVC030 TEMPO 1807/1810 P6SM OVC010 FM181100 15006KT P6SM SCT080 FM181600 20013G20KT P6SM SCT250